sensor_id;sensor_type;location;lat;lon;timestamp;P1;durP1;ratioP1;P2;durP2;ratioP2
5221;SDS011;2630;52.036;8.514;2023-08-21T00:01:05;76.57;;;5.77;;
5221;SDS011;2630;52.036;8.514;2023-08-21T00:03:31;79.47;;;6.10;;
5221;SDS011;2630;52.036;8.514;2023-08-21T00:05:57;81.33;;;6.50;;
5221;SDS011;2630;52.036;8.514;2023-08-21T00:08:23;73.50;;;5.43;;
5221;SDS011;2630;52.036;8.514;2023-08-21T00:10:48;86.10;;;6.90;;
5221;SDS011;2630;52.036;8.514;2023-08-21T00:13:14;73.37;;;5.43;;
5221;SDS011;2630;52.036;8.514;2023-08-21T00:15:40;73.70;;;5.67;;
5221;SDS011;2630;52.036;8.514;2023-08-21T00:18:06;74.23;;;6.07;;
5221;SDS011;2630;52.036;8.514;2023-08-21T00:20:32;73.10;;;5.57;;
5221;SDS011;2630;52.036;8.514;2023-08-21T00:22:58;73.27;;;5.73;;
5221;SDS011;2630;52.036;8.514;2023-08-21T00:25:24;73.50;;;5.67;;
5221;SDS011;2630;52.036;8.514;2023-08-21T00:27:50;73.30;;;6.03;;
5221;SDS011;2630;52.036;8.514;2023-08-21T00:30:16;76.07;;;6.77;;
5221;SDS011;2630;52.036;8.514;2023-08-21T00:32:41;80.63;;;6.47;;
5221;SDS011;2630;52.036;8.514;2023-08-21T00:35:07;74.73;;;5.50;;
5221;SDS011;2630;52.036;8.514;2023-08-21T00:37:33;73.33;;;5.70;;
5221;SDS011;2630;52.036;8.514;2023-08-21T00:39:59;88.03;;;7.57;;
5221;SDS011;2630;52.036;8.514;2023-08-21T00:42:25;73.20;;;5.13;;
5221;SDS011;2630;52.036;8.514;2023-08-21T00:44:50;73.07;;;5.13;;
5221;SDS011;2630;52.036;8.514;2023-08-21T00:47:16;82.67;;;6.80;;
5221;SDS011;2630;52.036;8.514;2023-08-21T00:49:42;73.20;;;5.47;;
5221;SDS011;2630;52.036;8.514;2023-08-21T00:52:09;73.70;;;6.10;;
5221;SDS011;2630;52.036;8.514;2023-08-21T00:54:37;78.40;;;6.37;;
5221;SDS011;2630;52.036;8.514;2023-08-21T00:57:03;73.47;;;6.10;;
5221;SDS011;2630;52.036;8.514;2023-08-21T00:59:29;75.03;;;5.97;;
5221;SDS011;2630;52.036;8.514;2023-08-21T01:01:55;91.50;;;7.50;;
5221;SDS011;2630;52.036;8.514;2023-08-21T01:04:21;77.73;;;6.20;;
5221;SDS011;2630;52.036;8.514;2023-08-21T01:06:48;73.10;;;5.53;;
5221;SDS011;2630;52.036;8.514;2023-08-21T01:09:25;75.87;;;5.63;;
5221;SDS011;2630;52.036;8.514;2023-08-21T01:14:38;79.43;;;6.37;;
5221;SDS011;2630;52.036;8.514;2023-08-21T01:17:13;73.37;;;5.63;;
5221;SDS011;2630;52.036;8.514;2023-08-21T01:19:42;73.17;;;5.57;;
5221;SDS011;2630;52.036;8.514;2023-08-21T01:22:11;73.10;;;5.50;;
5221;SDS011;2630;52.036;8.514;2023-08-21T01:24:37;100.80;;;8.97;;
5221;SDS011;2630;52.036;8.514;2023-08-21T01:27:03;72.93;;;5.43;;
5221;SDS011;2630;52.036;8.514;2023-08-21T01:29:29;82.70;;;6.40;;
5221;SDS011;2630;52.036;8.514;2023-08-21T01:31:58;81.10;;;6.70;;
5221;SDS011;2630;52.036;8.514;2023-08-21T01:34:35;79.87;;;6.73;;
5221;SDS011;2630;52.036;8.514;2023-08-21T01:37:03;73.30;;;5.83;;
5221;SDS011;2630;52.036;8.514;2023-08-21T01:39:29;74.80;;;6.87;;
5221;SDS011;2630;52.036;8.514;2023-08-21T01:41:56;73.00;;;5.07;;
5221;SDS011;2630;52.036;8.514;2023-08-21T01:44:22;73.47;;;5.67;;
5221;SDS011;2630;52.036;8.514;2023-08-21T01:46:49;75.07;;;5.80;;
5221;SDS011;2630;52.036;8.514;2023-08-21T01:49:15;76.33;;;5.70;;
5221;SDS011;2630;52.036;8.514;2023-08-21T01:51:43;74.37;;;6.10;;
5221;SDS011;2630;52.036;8.514;2023-08-21T01:54:09;79.10;;;6.13;;
5221;SDS011;2630;52.036;8.514;2023-08-21T01:56:35;94.43;;;7.07;;
5221;SDS011;2630;52.036;8.514;2023-08-21T01:59:01;72.97;;;5.37;;
5221;SDS011;2630;52.036;8.514;2023-08-21T02:01:27;102.17;;;6.50;;
5221;SDS011;2630;52.036;8.514;2023-08-21T02:03:53;92.83;;;6.97;;
5221;SDS011;2630;52.036;8.514;2023-08-21T02:06:19;75.63;;;5.93;;
5221;SDS011;2630;52.036;8.514;2023-08-21T02:08:45;72.80;;;5.40;;
5221;SDS011;2630;52.036;8.514;2023-08-21T02:11:10;72.80;;;5.13;;
5221;SDS011;2630;52.036;8.514;2023-08-21T02:13:36;82.97;;;6.37;;
5221;SDS011;2630;52.036;8.514;2023-08-21T02:16:02;72.97;;;5.50;;
5221;SDS011;2630;52.036;8.514;2023-08-21T02:18:28;73.07;;;5.87;;
5221;SDS011;2630;52.036;8.514;2023-08-21T02:20:54;78.70;;;5.73;;
5221;SDS011;2630;52.036;8.514;2023-08-21T02:23:20;73.27;;;5.40;;
5221;SDS011;2630;52.036;8.514;2023-08-21T02:25:46;72.90;;;5.33;;
5221;SDS011;2630;52.036;8.514;2023-08-21T02:28:14;81.23;;;6.30;;
5221;SDS011;2630;52.036;8.514;2023-08-21T02:30:40;72.80;;;5.30;;
5221;SDS011;2630;52.036;8.514;2023-08-21T02:33:06;72.97;;;5.57;;
5221;SDS011;2630;52.036;8.514;2023-08-21T02:35:32;74.07;;;5.63;;
5221;SDS011;2630;52.036;8.514;2023-08-21T02:37:58;83.67;;;6.90;;
5221;SDS011;2630;52.036;8.514;2023-08-21T02:40:24;72.80;;;5.30;;
5221;SDS011;2630;52.036;8.514;2023-08-21T02:42:50;73.00;;;5.33;;
5221;SDS011;2630;52.036;8.514;2023-08-21T02:45:16;81.30;;;6.70;;
5221;SDS011;2630;52.036;8.514;2023-08-21T02:47:44;73.20;;;5.40;;
5221;SDS011;2630;52.036;8.514;2023-08-21T02:50:10;74.27;;;5.80;;
5221;SDS011;2630;52.036;8.514;2023-08-21T02:52:36;72.97;;;5.33;;
5221;SDS011;2630;52.036;8.514;2023-08-21T02:55:02;73.10;;;5.33;;
5221;SDS011;2630;52.036;8.514;2023-08-21T02:57:29;72.73;;;5.13;;
5221;SDS011;2630;52.036;8.514;2023-08-21T02:59:55;84.57;;;6.40;;
5221;SDS011;2630;52.036;8.514;2023-08-21T03:02:21;80.87;;;6.10;;
5221;SDS011;2630;52.036;8.514;2023-08-21T03:04:48;72.87;;;5.20;;
5221;SDS011;2630;52.036;8.514;2023-08-21T03:07:14;72.77;;;5.07;;
5221;SDS011;2630;52.036;8.514;2023-08-21T03:09:40;81.77;;;5.80;;
5221;SDS011;2630;52.036;8.514;2023-08-21T03:12:06;73.07;;;5.57;;
5221;SDS011;2630;52.036;8.514;2023-08-21T03:14:33;77.93;;;5.80;;
5221;SDS011;2630;52.036;8.514;2023-08-21T03:16:59;84.13;;;6.53;;
5221;SDS011;2630;52.036;8.514;2023-08-21T03:19:24;84.10;;;6.30;;
5221;SDS011;2630;52.036;8.514;2023-08-21T03:21:50;78.07;;;6.00;;
5221;SDS011;2630;52.036;8.514;2023-08-21T03:24:16;72.93;;;5.13;;
5221;SDS011;2630;52.036;8.514;2023-08-21T03:26:43;72.60;;;5.43;;
5221;SDS011;2630;52.036;8.514;2023-08-21T03:29:09;72.87;;;5.33;;
5221;SDS011;2630;52.036;8.514;2023-08-21T03:31:35;75.17;;;5.37;;
5221;SDS011;2630;52.036;8.514;2023-08-21T03:34:00;73.73;;;5.70;;
5221;SDS011;2630;52.036;8.514;2023-08-21T03:36:27;73.47;;;5.40;;
5221;SDS011;2630;52.036;8.514;2023-08-21T03:38:59;76.70;;;5.67;;
5221;SDS011;2630;52.036;8.514;2023-08-21T03:41:26;80.13;;;6.00;;
5221;SDS011;2630;52.036;8.514;2023-08-21T03:43:52;74.90;;;5.67;;
5221;SDS011;2630;52.036;8.514;2023-08-21T03:46:17;73.17;;;5.67;;
5221;SDS011;2630;52.036;8.514;2023-08-21T03:48:43;73.40;;;5.10;;
5221;SDS011;2630;52.036;8.514;2023-08-21T03:51:09;89.00;;;6.80;;
5221;SDS011;2630;52.036;8.514;2023-08-21T03:53:35;89.50;;;7.27;;
5221;SDS011;2630;52.036;8.514;2023-08-21T03:56:01;95.50;;;7.63;;
5221;SDS011;2630;52.036;8.514;2023-08-21T03:58:27;84.93;;;6.97;;
5221;SDS011;2630;52.036;8.514;2023-08-21T04:00:53;101.40;;;7.97;;
5221;SDS011;2630;52.036;8.514;2023-08-21T04:03:19;104.33;;;8.87;;
5221;SDS011;2630;52.036;8.514;2023-08-21T04:05:45;100.90;;;8.10;;
5221;SDS011;2630;52.036;8.514;2023-08-21T04:08:11;89.13;;;7.07;;
5221;SDS011;2630;52.036;8.514;2023-08-21T04:10:37;100.97;;;8.07;;
5221;SDS011;2630;52.036;8.514;2023-08-21T04:13:07;73.97;;;5.60;;
5221;SDS011;2630;52.036;8.514;2023-08-21T04:15:33;89.20;;;7.00;;
5221;SDS011;2630;52.036;8.514;2023-08-21T04:18:02;93.30;;;7.40;;
5221;SDS011;2630;52.036;8.514;2023-08-21T04:20:28;87.77;;;6.80;;
5221;SDS011;2630;52.036;8.514;2023-08-21T04:22:54;100.80;;;8.07;;
5221;SDS011;2630;52.036;8.514;2023-08-21T04:25:20;95.00;;;7.93;;
5221;SDS011;2630;52.036;8.514;2023-08-21T04:27:46;99.40;;;7.93;;
5221;SDS011;2630;52.036;8.514;2023-08-21T04:30:12;91.93;;;7.40;;
5221;SDS011;2630;52.036;8.514;2023-08-21T04:32:38;89.60;;;7.30;;
5221;SDS011;2630;52.036;8.514;2023-08-21T04:35:04;90.67;;;6.43;;
5221;SDS011;2630;52.036;8.514;2023-08-21T04:37:30;91.43;;;7.27;;
5221;SDS011;2630;52.036;8.514;2023-08-21T04:39:56;111.00;;;8.57;;
5221;SDS011;2630;52.036;8.514;2023-08-21T04:42:22;88.43;;;6.90;;
5221;SDS011;2630;52.036;8.514;2023-08-21T04:44:48;80.53;;;6.10;;
5221;SDS011;2630;52.036;8.514;2023-08-21T04:47:32;87.50;;;6.77;;
5221;SDS011;2630;52.036;8.514;2023-08-21T04:49:58;95.03;;;7.10;;
5221;SDS011;2630;52.036;8.514;2023-08-21T04:52:24;97.03;;;8.00;;
5221;SDS011;2630;52.036;8.514;2023-08-21T04:54:51;92.83;;;7.50;;
5221;SDS011;2630;52.036;8.514;2023-08-21T04:57:17;97.03;;;7.80;;
5221;SDS011;2630;52.036;8.514;2023-08-21T04:59:43;91.93;;;6.70;;
5221;SDS011;2630;52.036;8.514;2023-08-21T05:02:09;88.67;;;6.70;;
5221;SDS011;2630;52.036;8.514;2023-08-21T05:04:36;73.27;;;5.53;;
5221;SDS011;2630;52.036;8.514;2023-08-21T05:07:02;72.80;;;5.23;;
5221;SDS011;2630;52.036;8.514;2023-08-21T05:09:28;84.43;;;6.73;;
5221;SDS011;2630;52.036;8.514;2023-08-21T05:11:54;73.00;;;5.77;;
5221;SDS011;2630;52.036;8.514;2023-08-21T05:14:21;73.13;;;5.10;;
5221;SDS011;2630;52.036;8.514;2023-08-21T05:16:47;79.80;;;5.73;;
5221;SDS011;2630;52.036;8.514;2023-08-21T05:19:16;87.13;;;6.50;;
5221;SDS011;2630;52.036;8.514;2023-08-21T05:21:43;72.50;;;5.37;;
5221;SDS011;2630;52.036;8.514;2023-08-21T05:24:09;77.27;;;5.90;;
5221;SDS011;2630;52.036;8.514;2023-08-21T05:26:38;99.93;;;8.10;;
5221;SDS011;2630;52.036;8.514;2023-08-21T05:29:04;93.03;;;7.57;;
5221;SDS011;2630;52.036;8.514;2023-08-21T05:31:30;100.00;;;8.27;;
5221;SDS011;2630;52.036;8.514;2023-08-21T05:33:55;72.93;;;5.40;;
5221;SDS011;2630;52.036;8.514;2023-08-21T05:36:21;76.37;;;5.37;;
5221;SDS011;2630;52.036;8.514;2023-08-21T05:38:47;77.53;;;5.60;;
5221;SDS011;2630;52.036;8.514;2023-08-21T05:41:16;75.67;;;6.00;;
5221;SDS011;2630;52.036;8.514;2023-08-21T05:43:42;78.50;;;5.60;;
5221;SDS011;2630;52.036;8.514;2023-08-21T05:46:08;72.87;;;5.57;;
5221;SDS011;2630;52.036;8.514;2023-08-21T05:48:34;72.70;;;5.77;;
5221;SDS011;2630;52.036;8.514;2023-08-21T05:51:00;75.30;;;5.37;;
5221;SDS011;2630;52.036;8.514;2023-08-21T05:53:26;72.90;;;5.30;;
5221;SDS011;2630;52.036;8.514;2023-08-21T05:55:52;74.10;;;4.90;;
5221;SDS011;2630;52.036;8.514;2023-08-21T05:58:18;89.93;;;6.73;;
5221;SDS011;2630;52.036;8.514;2023-08-21T06:00:44;72.67;;;5.17;;
5221;SDS011;2630;52.036;8.514;2023-08-21T06:03:10;77.20;;;5.60;;
5221;SDS011;2630;52.036;8.514;2023-08-21T06:05:36;72.80;;;5.27;;
5221;SDS011;2630;52.036;8.514;2023-08-21T06:08:01;72.60;;;5.30;;
5221;SDS011;2630;52.036;8.514;2023-08-21T06:10:27;96.40;;;7.93;;
5221;SDS011;2630;52.036;8.514;2023-08-21T06:12:53;83.17;;;6.33;;
5221;SDS011;2630;52.036;8.514;2023-08-21T06:15:20;76.53;;;5.77;;
5221;SDS011;2630;52.036;8.514;2023-08-21T06:17:46;79.93;;;6.40;;
5221;SDS011;2630;52.036;8.514;2023-08-21T06:20:12;79.30;;;6.20;;
5221;SDS011;2630;52.036;8.514;2023-08-21T06:22:39;73.87;;;5.93;;
5221;SDS011;2630;52.036;8.514;2023-08-21T06:25:04;102.13;;;8.03;;
5221;SDS011;2630;52.036;8.514;2023-08-21T06:27:30;77.40;;;6.00;;
5221;SDS011;2630;52.036;8.514;2023-08-21T06:29:56;74.13;;;5.97;;
5221;SDS011;2630;52.036;8.514;2023-08-21T06:32:21;74.70;;;5.70;;
5221;SDS011;2630;52.036;8.514;2023-08-21T06:34:47;73.60;;;6.37;;
5221;SDS011;2630;52.036;8.514;2023-08-21T06:37:13;83.23;;;6.80;;
5221;SDS011;2630;52.036;8.514;2023-08-21T06:39:39;89.60;;;7.33;;
5221;SDS011;2630;52.036;8.514;2023-08-21T06:42:04;81.40;;;7.17;;
5221;SDS011;2630;52.036;8.514;2023-08-21T06:44:30;77.87;;;6.43;;
5221;SDS011;2630;52.036;8.514;2023-08-21T06:46:56;79.63;;;7.00;;
5221;SDS011;2630;52.036;8.514;2023-08-21T06:49:22;87.57;;;7.43;;
5221;SDS011;2630;52.036;8.514;2023-08-21T06:51:48;73.13;;;5.90;;
5221;SDS011;2630;52.036;8.514;2023-08-21T06:54:14;81.13;;;6.50;;
5221;SDS011;2630;52.036;8.514;2023-08-21T06:56:40;74.60;;;6.40;;
5221;SDS011;2630;52.036;8.514;2023-08-21T06:59:06;84.00;;;7.00;;
5221;SDS011;2630;52.036;8.514;2023-08-21T07:01:32;82.10;;;6.70;;
5221;SDS011;2630;52.036;8.514;2023-08-21T07:03:58;73.50;;;6.17;;
5221;SDS011;2630;52.036;8.514;2023-08-21T07:06:24;81.33;;;5.90;;
5221;SDS011;2630;52.036;8.514;2023-08-21T07:08:50;77.87;;;6.33;;
5221;SDS011;2630;52.036;8.514;2023-08-21T07:11:16;72.73;;;5.57;;
5221;SDS011;2630;52.036;8.514;2023-08-21T07:13:42;73.43;;;5.67;;
5221;SDS011;2630;52.036;8.514;2023-08-21T07:16:08;77.53;;;5.97;;
5221;SDS011;2630;52.036;8.514;2023-08-21T07:18:35;76.27;;;6.37;;
5221;SDS011;2630;52.036;8.514;2023-08-21T07:21:01;78.87;;;6.10;;
5221;SDS011;2630;52.036;8.514;2023-08-21T07:23:29;82.13;;;6.37;;
5221;SDS011;2630;52.036;8.514;2023-08-21T07:25:55;72.57;;;5.67;;
5221;SDS011;2630;52.036;8.514;2023-08-21T07:28:22;72.90;;;5.60;;
5221;SDS011;2630;52.036;8.514;2023-08-21T07:30:48;74.97;;;6.13;;
5221;SDS011;2630;52.036;8.514;2023-08-21T07:33:19;82.33;;;6.67;;
5221;SDS011;2630;52.036;8.514;2023-08-21T07:35:44;72.40;;;5.83;;
5221;SDS011;2630;52.036;8.514;2023-08-21T07:38:10;75.80;;;6.63;;
5221;SDS011;2630;52.036;8.514;2023-08-21T07:40:36;73.10;;;6.13;;
5221;SDS011;2630;52.036;8.514;2023-08-21T07:43:01;72.87;;;6.37;;
5221;SDS011;2630;52.036;8.514;2023-08-21T07:45:27;74.50;;;6.50;;
5221;SDS011;2630;52.036;8.514;2023-08-21T07:47:53;73.90;;;5.57;;
5221;SDS011;2630;52.036;8.514;2023-08-21T07:50:19;73.77;;;6.00;;
5221;SDS011;2630;52.036;8.514;2023-08-21T07:52:44;76.07;;;6.57;;
5221;SDS011;2630;52.036;8.514;2023-08-21T07:55:10;78.27;;;7.07;;
5221;SDS011;2630;52.036;8.514;2023-08-21T07:57:36;76.47;;;7.77;;
5221;SDS011;2630;52.036;8.514;2023-08-21T08:00:02;77.93;;;5.93;;
5221;SDS011;2630;52.036;8.514;2023-08-21T08:02:29;72.97;;;6.27;;
5221;SDS011;2630;52.036;8.514;2023-08-21T08:04:58;75.83;;;6.23;;
5221;SDS011;2630;52.036;8.514;2023-08-21T08:07:25;76.20;;;6.33;;
5221;SDS011;2630;52.036;8.514;2023-08-21T08:09:50;74.90;;;6.37;;
5221;SDS011;2630;52.036;8.514;2023-08-21T08:12:16;79.00;;;6.50;;
5221;SDS011;2630;52.036;8.514;2023-08-21T08:14:42;74.57;;;6.07;;
5221;SDS011;2630;52.036;8.514;2023-08-21T08:17:08;73.07;;;6.13;;
5221;SDS011;2630;52.036;8.514;2023-08-21T08:19:33;78.00;;;6.00;;
5221;SDS011;2630;52.036;8.514;2023-08-21T08:21:59;76.80;;;6.10;;
5221;SDS011;2630;52.036;8.514;2023-08-21T08:24:25;74.70;;;6.40;;
5221;SDS011;2630;52.036;8.514;2023-08-21T08:26:51;82.30;;;6.77;;
5221;SDS011;2630;52.036;8.514;2023-08-21T08:29:16;87.43;;;7.20;;
5221;SDS011;2630;52.036;8.514;2023-08-21T08:31:42;93.17;;;7.93;;
5221;SDS011;2630;52.036;8.514;2023-08-21T08:34:08;84.63;;;6.97;;
5221;SDS011;2630;52.036;8.514;2023-08-21T08:36:35;82.37;;;6.73;;
5221;SDS011;2630;52.036;8.514;2023-08-21T08:39:01;82.83;;;7.20;;
5221;SDS011;2630;52.036;8.514;2023-08-21T08:44:19;83.93;;;7.00;;
5221;SDS011;2630;52.036;8.514;2023-08-21T08:46:45;76.90;;;6.33;;
5221;SDS011;2630;52.036;8.514;2023-08-21T08:49:11;73.13;;;6.47;;
5221;SDS011;2630;52.036;8.514;2023-08-21T08:51:37;80.80;;;7.00;;
5221;SDS011;2630;52.036;8.514;2023-08-21T08:54:04;75.23;;;6.77;;
5221;SDS011;2630;52.036;8.514;2023-08-21T08:56:31;79.60;;;7.03;;
5221;SDS011;2630;52.036;8.514;2023-08-21T08:58:57;78.17;;;6.60;;
5221;SDS011;2630;52.036;8.514;2023-08-21T09:01:22;79.40;;;7.03;;
5221;SDS011;2630;52.036;8.514;2023-08-21T09:03:48;85.87;;;7.50;;
5221;SDS011;2630;52.036;8.514;2023-08-21T09:06:15;83.90;;;7.30;;
5221;SDS011;2630;52.036;8.514;2023-08-21T09:08:53;85.67;;;6.87;;
5221;SDS011;2630;52.036;8.514;2023-08-21T09:11:20;95.27;;;8.00;;
5221;SDS011;2630;52.036;8.514;2023-08-21T09:13:46;82.67;;;7.40;;
5221;SDS011;2630;52.036;8.514;2023-08-21T09:16:14;92.57;;;10.03;;
5221;SDS011;2630;52.036;8.514;2023-08-21T09:18:56;93.43;;;10.37;;
5221;SDS011;2630;52.036;8.514;2023-08-21T09:21:23;80.30;;;8.20;;
5221;SDS011;2630;52.036;8.514;2023-08-21T09:23:56;74.80;;;7.50;;
5221;SDS011;2630;52.036;8.514;2023-08-21T09:26:23;72.97;;;6.87;;
5221;SDS011;2630;52.036;8.514;2023-08-21T09:28:50;73.87;;;7.23;;
5221;SDS011;2630;52.036;8.514;2023-08-21T09:31:16;76.07;;;7.80;;
5221;SDS011;2630;52.036;8.514;2023-08-21T09:33:58;75.90;;;6.80;;
5221;SDS011;2630;52.036;8.514;2023-08-21T09:36:25;73.40;;;6.67;;
5221;SDS011;2630;52.036;8.514;2023-08-21T09:38:51;84.40;;;7.60;;
5221;SDS011;2630;52.036;8.514;2023-08-21T09:41:21;76.80;;;6.87;;
5221;SDS011;2630;52.036;8.514;2023-08-21T09:43:48;84.03;;;7.43;;
5221;SDS011;2630;52.036;8.514;2023-08-21T09:46:14;89.77;;;8.63;;
5221;SDS011;2630;52.036;8.514;2023-08-21T09:48:44;79.97;;;7.80;;
5221;SDS011;2630;52.036;8.514;2023-08-21T09:51:11;73.43;;;6.73;;
5221;SDS011;2630;52.036;8.514;2023-08-21T09:53:37;80.10;;;7.17;;
5221;SDS011;2630;52.036;8.514;2023-08-21T09:56:04;78.43;;;5.93;;
5221;SDS011;2630;52.036;8.514;2023-08-21T09:58:30;78.00;;;7.87;;
5221;SDS011;2630;52.036;8.514;2023-08-21T10:00:56;89.83;;;6.77;;
5221;SDS011;2630;52.036;8.514;2023-08-21T10:03:23;77.20;;;7.50;;
5221;SDS011;2630;52.036;8.514;2023-08-21T10:05:49;86.37;;;7.20;;
5221;SDS011;2630;52.036;8.514;2023-08-21T10:08:16;77.03;;;7.67;;
5221;SDS011;2630;52.036;8.514;2023-08-21T10:10:50;73.57;;;7.10;;
5221;SDS011;2630;52.036;8.514;2023-08-21T10:13:16;75.33;;;6.77;;
5221;SDS011;2630;52.036;8.514;2023-08-21T10:15:43;74.30;;;6.93;;
5221;SDS011;2630;52.036;8.514;2023-08-21T10:20:54;91.67;;;8.37;;
5221;SDS011;2630;52.036;8.514;2023-08-21T10:23:30;74.57;;;6.77;;
5221;SDS011;2630;52.036;8.514;2023-08-21T10:25:59;77.17;;;7.57;;
5221;SDS011;2630;52.036;8.514;2023-08-21T10:33:55;76.67;;;7.70;;
5221;SDS011;2630;52.036;8.514;2023-08-21T10:36:37;79.43;;;7.17;;
5221;SDS011;2630;52.036;8.514;2023-08-21T10:39:03;73.40;;;6.43;;
5221;SDS011;2630;52.036;8.514;2023-08-21T10:41:29;82.20;;;7.63;;
5221;SDS011;2630;52.036;8.514;2023-08-21T10:43:55;77.03;;;7.10;;
5221;SDS011;2630;52.036;8.514;2023-08-21T10:46:21;74.30;;;7.03;;
5221;SDS011;2630;52.036;8.514;2023-08-21T10:48:46;77.47;;;7.20;;
5221;SDS011;2630;52.036;8.514;2023-08-21T10:51:12;76.00;;;6.93;;
5221;SDS011;2630;52.036;8.514;2023-08-21T10:53:38;85.77;;;8.60;;
5221;SDS011;2630;52.036;8.514;2023-08-21T10:56:06;75.60;;;7.30;;
5221;SDS011;2630;52.036;8.514;2023-08-21T10:58:38;76.10;;;8.43;;
5221;SDS011;2630;52.036;8.514;2023-08-21T11:01:08;81.83;;;7.87;;
5221;SDS011;2630;52.036;8.514;2023-08-21T11:03:34;77.57;;;7.73;;
5221;SDS011;2630;52.036;8.514;2023-08-21T11:06:06;74.40;;;8.53;;
5221;SDS011;2630;52.036;8.514;2023-08-21T11:08:33;75.10;;;7.90;;
5221;SDS011;2630;52.036;8.514;2023-08-21T11:11:01;83.90;;;10.27;;
5221;SDS011;2630;52.036;8.514;2023-08-21T11:13:28;95.33;;;10.23;;
5221;SDS011;2630;52.036;8.514;2023-08-21T11:16:01;75.30;;;9.00;;
5221;SDS011;2630;52.036;8.514;2023-08-21T11:18:29;78.33;;;8.20;;
5221;SDS011;2630;52.036;8.514;2023-08-21T11:21:05;74.37;;;8.00;;
5221;SDS011;2630;52.036;8.514;2023-08-21T11:23:36;98.03;;;9.83;;
5221;SDS011;2630;52.036;8.514;2023-08-21T11:26:03;74.40;;;7.97;;
5221;SDS011;2630;52.036;8.514;2023-08-21T11:28:29;79.60;;;9.10;;
5221;SDS011;2630;52.036;8.514;2023-08-21T11:30:56;76.37;;;9.07;;
5221;SDS011;2630;52.036;8.514;2023-08-21T11:33:22;74.80;;;9.00;;
5221;SDS011;2630;52.036;8.514;2023-08-21T11:35:49;79.13;;;8.93;;
5221;SDS011;2630;52.036;8.514;2023-08-21T11:38:16;102.90;;;10.23;;
5221;SDS011;2630;52.036;8.514;2023-08-21T11:40:50;74.60;;;9.20;;
5221;SDS011;2630;52.036;8.514;2023-08-21T11:43:39;77.57;;;8.40;;
5221;SDS011;2630;52.036;8.514;2023-08-21T11:46:06;84.27;;;7.40;;
5221;SDS011;2630;52.036;8.514;2023-08-21T11:48:32;78.77;;;7.50;;
5221;SDS011;2630;52.036;8.514;2023-08-21T11:51:00;82.90;;;7.80;;
5221;SDS011;2630;52.036;8.514;2023-08-21T11:53:59;90.33;;;8.10;;
5221;SDS011;2630;52.036;8.514;2023-08-21T11:56:18;84.60;;;8.17;;
5221;SDS011;2630;52.036;8.514;2023-08-21T11:58:44;74.30;;;7.37;;
5221;SDS011;2630;52.036;8.514;2023-08-21T12:01:15;113.23;;;10.30;;
5221;SDS011;2630;52.036;8.514;2023-08-21T12:03:43;73.57;;;7.00;;
5221;SDS011;2630;52.036;8.514;2023-08-21T12:06:09;75.43;;;7.30;;
5221;SDS011;2630;52.036;8.514;2023-08-21T12:08:36;73.70;;;7.07;;
5221;SDS011;2630;52.036;8.514;2023-08-21T12:11:03;89.10;;;7.90;;
5221;SDS011;2630;52.036;8.514;2023-08-21T12:13:29;100.20;;;8.60;;
5221;SDS011;2630;52.036;8.514;2023-08-21T12:15:55;77.53;;;7.27;;
5221;SDS011;2630;52.036;8.514;2023-08-21T12:18:21;80.73;;;7.87;;
5221;SDS011;2630;52.036;8.514;2023-08-21T12:20:47;97.33;;;10.00;;
5221;SDS011;2630;52.036;8.514;2023-08-21T12:23:13;78.67;;;8.93;;
5221;SDS011;2630;52.036;8.514;2023-08-21T12:25:38;74.80;;;8.33;;
5221;SDS011;2630;52.036;8.514;2023-08-21T12:28:05;74.37;;;8.90;;
5221;SDS011;2630;52.036;8.514;2023-08-21T12:30:31;74.77;;;8.17;;
5221;SDS011;2630;52.036;8.514;2023-08-21T12:32:57;76.83;;;8.70;;
5221;SDS011;2630;52.036;8.514;2023-08-21T12:35:22;77.63;;;9.77;;
5221;SDS011;2630;52.036;8.514;2023-08-21T12:37:48;76.20;;;8.57;;
5221;SDS011;2630;52.036;8.514;2023-08-21T12:40:14;84.27;;;9.53;;
5221;SDS011;2630;52.036;8.514;2023-08-21T12:42:42;74.70;;;9.40;;
5221;SDS011;2630;52.036;8.514;2023-08-21T12:45:08;74.90;;;8.60;;
5221;SDS011;2630;52.036;8.514;2023-08-21T12:47:34;75.17;;;8.43;;
5221;SDS011;2630;52.036;8.514;2023-08-21T12:50:00;79.60;;;8.93;;
5221;SDS011;2630;52.036;8.514;2023-08-21T12:52:28;74.43;;;8.87;;
5221;SDS011;2630;52.036;8.514;2023-08-21T12:54:53;75.47;;;9.07;;
5221;SDS011;2630;52.036;8.514;2023-08-21T12:57:19;74.47;;;9.13;;
5221;SDS011;2630;52.036;8.514;2023-08-21T12:59:45;74.17;;;8.40;;
5221;SDS011;2630;52.036;8.514;2023-08-21T13:02:10;74.57;;;9.03;;
5221;SDS011;2630;52.036;8.514;2023-08-21T13:04:36;81.20;;;8.83;;
5221;SDS011;2630;52.036;8.514;2023-08-21T13:07:01;80.00;;;8.63;;
5221;SDS011;2630;52.036;8.514;2023-08-21T13:09:28;87.13;;;9.43;;
5221;SDS011;2630;52.036;8.514;2023-08-21T13:11:54;75.07;;;8.43;;
5221;SDS011;2630;52.036;8.514;2023-08-21T13:14:19;77.50;;;8.97;;
5221;SDS011;2630;52.036;8.514;2023-08-21T13:16:45;77.27;;;9.00;;
5221;SDS011;2630;52.036;8.514;2023-08-21T13:19:11;77.20;;;7.97;;
5221;SDS011;2630;52.036;8.514;2023-08-21T13:21:36;79.43;;;9.20;;
5221;SDS011;2630;52.036;8.514;2023-08-21T13:24:02;75.73;;;8.63;;
5221;SDS011;2630;52.036;8.514;2023-08-21T13:26:29;82.53;;;9.20;;
5221;SDS011;2630;52.036;8.514;2023-08-21T13:28:56;74.17;;;8.47;;
5221;SDS011;2630;52.036;8.514;2023-08-21T13:31:22;77.40;;;8.63;;
5221;SDS011;2630;52.036;8.514;2023-08-21T13:33:48;85.03;;;8.83;;
5221;SDS011;2630;52.036;8.514;2023-08-21T13:36:14;74.57;;;8.23;;
5221;SDS011;2630;52.036;8.514;2023-08-21T13:38:41;76.33;;;8.67;;
5221;SDS011;2630;52.036;8.514;2023-08-21T13:41:07;78.63;;;8.40;;
5221;SDS011;2630;52.036;8.514;2023-08-21T13:43:34;78.30;;;9.43;;
5221;SDS011;2630;52.036;8.514;2023-08-21T13:46:00;74.67;;;8.27;;
5221;SDS011;2630;52.036;8.514;2023-08-21T13:48:28;75.40;;;8.87;;
5221;SDS011;2630;52.036;8.514;2023-08-21T13:50:55;82.87;;;9.50;;
5221;SDS011;2630;52.036;8.514;2023-08-21T13:53:21;76.00;;;8.27;;
5221;SDS011;2630;52.036;8.514;2023-08-21T13:55:46;89.03;;;9.83;;
5221;SDS011;2630;52.036;8.514;2023-08-21T13:58:12;79.60;;;7.47;;
5221;SDS011;2630;52.036;8.514;2023-08-21T14:00:37;73.87;;;6.77;;
5221;SDS011;2630;52.036;8.514;2023-08-21T14:03:03;73.47;;;6.47;;
5221;SDS011;2630;52.036;8.514;2023-08-21T14:05:29;75.37;;;6.67;;
5221;SDS011;2630;52.036;8.514;2023-08-21T14:07:56;75.30;;;6.30;;
5221;SDS011;2630;52.036;8.514;2023-08-21T14:10:22;75.50;;;6.50;;
5221;SDS011;2630;52.036;8.514;2023-08-21T14:12:48;76.77;;;7.30;;
5221;SDS011;2630;52.036;8.514;2023-08-21T14:15:14;75.00;;;6.80;;
5221;SDS011;2630;52.036;8.514;2023-08-21T14:17:40;83.60;;;7.97;;
5221;SDS011;2630;52.036;8.514;2023-08-21T14:20:07;73.40;;;6.50;;
5221;SDS011;2630;52.036;8.514;2023-08-21T14:22:33;75.03;;;7.13;;
5221;SDS011;2630;52.036;8.514;2023-08-21T14:24:59;73.80;;;7.23;;
5221;SDS011;2630;52.036;8.514;2023-08-21T14:27:25;73.57;;;6.73;;
5221;SDS011;2630;52.036;8.514;2023-08-21T14:29:51;74.13;;;6.43;;
5221;SDS011;2630;52.036;8.514;2023-08-21T14:32:17;77.97;;;6.23;;
5221;SDS011;2630;52.036;8.514;2023-08-21T14:34:43;74.07;;;6.33;;
5221;SDS011;2630;52.036;8.514;2023-08-21T14:37:09;87.00;;;7.63;;
5221;SDS011;2630;52.036;8.514;2023-08-21T14:39:40;73.47;;;6.40;;
5221;SDS011;2630;52.036;8.514;2023-08-21T14:42:06;80.43;;;6.73;;
5221;SDS011;2630;52.036;8.514;2023-08-21T14:44:32;75.47;;;6.30;;
5221;SDS011;2630;52.036;8.514;2023-08-21T14:46:58;75.07;;;6.80;;
5221;SDS011;2630;52.036;8.514;2023-08-21T14:49:24;78.90;;;7.90;;
5221;SDS011;2630;52.036;8.514;2023-08-21T14:51:50;79.00;;;7.00;;
5221;SDS011;2630;52.036;8.514;2023-08-21T14:54:17;75.07;;;8.30;;
5221;SDS011;2630;52.036;8.514;2023-08-21T14:56:43;73.87;;;7.73;;
5221;SDS011;2630;52.036;8.514;2023-08-21T14:59:08;74.20;;;8.13;;
5221;SDS011;2630;52.036;8.514;2023-08-21T15:01:39;78.37;;;8.70;;
5221;SDS011;2630;52.036;8.514;2023-08-21T15:04:05;74.40;;;8.20;;
5221;SDS011;2630;52.036;8.514;2023-08-21T15:06:32;80.00;;;8.53;;
5221;SDS011;2630;52.036;8.514;2023-08-21T15:08:58;79.50;;;9.40;;
5221;SDS011;2630;52.036;8.514;2023-08-21T15:11:24;75.83;;;7.97;;